Logo AVAMET
Benvolgut visitant, si us plau, ingressa Recuperar contrasenya

Relleu Casc urbà

Dades diàries. Acumulats / Últims 30 dies disponibles

Data Temperatura (°C) Humitat rel. (%) Pressió rel. (hPa) Vent (km/h) Precipitació
Mínima Mitjana Màxima Amplitud
tèrmica
Mínima Mitjana Màxima Mínima Mitjana Màxima Predom. Mitjana Ràfega
màxima
Total
(mm)
Índex-n
Mínima Mitjana Màxima Mínima Mitjana Màxima n
0 a 1
P0 max
mm 5'
Dades mensuals acumulades fins l'últim dia disponible
12/2019 7,2 8,7 10,2 11,4 11,7 15,2 18,6 11,4 53 77 92 1.003 1.015 1.024   2,0 38,6 57,8
Dades anuals acumulades fins l'últim dia disponible
2019 2,6 13,7 27,3 18,2 9,9 23,6 38,4 35,8 12 58 95 994 1.016 1.035   1,7 53,1 410,4
Últims 30 dies disponibles
08-12-2019 8,0     12,7     16,9 8,9 53 67 88 1.021 1.023 1.024 OSO 2,7 33,8 0,0
07-12-2019 8,3     11,2     16,4 8,1 57 77 89 1.022 1.023 1.024 O 0,5 16,1 0,0
06-12-2019 9,3     11,7     15,4 6,1 66 78 87 1.020 1.022 1.023 ONO 3,7 20,9 0,0
05-12-2019 8,8     11,3     15,8 7,0 66 82 91 1.009 1.016 1.021 O 0,1 9,7 0,0
04-12-2019 7,7     10,1     12,5 4,8 75 82 92 1.003 1.005 1.009 O 3,4 30,6 40,2 0,32 4,40
03-12-2019 7,2     10,0     11,7 4,5 70 78 90 1.008 1.012 1.015 SSO 4,5 38,6 2,2
02-12-2019 10,2     11,4     14,1 3,9 72 81 92 1.010 1.012 1.015 O 1,3 19,3 15,4 0,42 1,20
01-12-2019 10,1     12,9     18,6 8,5 60 75 88 1.010 1.011 1.013 OSO 0,1 9,7 0,0
30-11-2019 11,8     15,1     20,7 8,9 55 71 83 1.014 1.018 1.020 OSO 0,3 12,9 0,0
29-11-2019 13,5     16,4     19,9 6,4 54 61 72 1.015 1.018 1.020 ONO 6,1 37,0 0,0
28-11-2019 12,2     15,0     20,3 8,1 44 57 68 1.012 1.015 1.017 O 5,1 35,4 0,0
27-11-2019 13,6     16,2     19,6 6,0 42 58 70 1.009 1.011 1.013 OSO 2,7 38,6 0,0
26-11-2019 13,3     16,1     21,0 7,7 44 65 77 1.010 1.012 1.015 O 3,2 27,4 0,0
25-11-2019 11,2     15,2     18,4 7,2 58 65 75 1.012 1.013 1.015 O 5,7 37,0 0,0
24-11-2019 9,4     11,3     13,4 4,0 46 53 59 1.006 1.011 1.014 ONO 11,1 49,9 0,0
23-11-2019 10,2     11,7     13,7 3,5 50 61 90 994 999 1.006 O 4,6 49,9 0,0
22-11-2019 8,2     11,4     14,6 6,4 72 86 94 995 1.003 1.008 OSO 0,3 16,1 12,6 0,34 1,70
21-11-2019 7,7     10,6     15,3 7,6 57 76 87 1.008 1.009 1.011 O 0,2 9,7 0,2
20-11-2019 6,6     10,0     15,0 8,4 47 64 87 1.010 1.012 1.015 O 0,7 11,3 0,8 0,20
19-11-2019 6,1     9,1     13,5 7,4 33 53 66 1.015 1.016 1.017 O 2,8 25,7 0,0
18-11-2019 6,9     10,2     13,8 6,9 48 63 81 1.006 1.010 1.016 ONO 3,7 29,0 1,6 0,21 0,40
17-11-2019 7,2     11,0     16,3 9,1 39 52 72 1.009 1.012 1.014 OSO 4,8 37,0 0,0
16-11-2019 6,1     9,1     12,7 6,6 43 53 64 1.006 1.011 1.015 ONO 4,5 29,0 0,0
15-11-2019 7,9     9,5     12,9 5,0 41 55 64 1.001 1.003 1.006 O 4,3 40,2 0,0
14-11-2019 8,7     11,5     14,6 5,9 46 64 89 999 1.003 1.011 OSO 2,8 33,8 0,0
13-11-2019 10,9     14,0     18,8 7,9 49 65 79 1.005 1.008 1.012 OSO 3,0 40,2 0,8 0,42 0,40
12-11-2019 9,2     12,0     16,7 7,5 34 47 57 1.010 1.011 1.013 O 4,1 37,0 0,0
11-11-2019 6,7     10,6     14,5 7,8 41 51 61 1.011 1.012 1.014 OSO 2,5 37,0 0,0
10-11-2019 8,1     11,0     13,1 5,0 43 56 78 1.009 1.011 1.013 O 10,6 43,5 1,4
09-11-2019 9,6     12,4     16,2 6,6 32 48 74 1.012 1.017 1.020 ONO 5,4 37,0 0,2
Últims 13 mesos disponibles
11/2019 6,1 10,6 17,8 13,5 12,7 17,4 24,7 18,6 47 58 86 999 1.010 1.018 O 4,5 49,9 17,6
10/2019 9,2 15,0 18,6 19,0 13,9 24,3 31,4 22,2 45 64 82 1.008 1.016 1.021 OSO 1,5 53,1 45,0
09/2019 13,2 18,5 21,2 22,6 21,6 28,1 33,2 20,0 45 70 84 1.009 1.016 1.021 SO 1,1 46,7 97,8
08/2019 17,9 21,5 27,3 26,5 27,8 32,7 38,4 20,5 30 57 74 1.009 1.014 1.018 OSO 0,8 30,6 12,2
07/2019 18,9 21,4 25,2 27,3 28,1 33,7 38,1 19,2 28 48 75 1.004 1.012 1.018 SO 0,7 29,0 3,6
06/2019 13,2 17,6 25,3 23,6 24,6 29,8 38,3 25,1 27 48 73 1.007 1.013 1.021 SO 1,1 32,2 1,4
05/2019 9,7 13,3 18,9 18,4 18,6 24,1 30,3 20,6 37 58 75 1.004 1.014 1.024 OSO 1,1 41,8 6,4
04/2019 7,1 10,2 13,9 14,3 13,7 19,2 27,6 20,5 35 65 88 1.000 1.012 1.024 OSO 2,0 45,1 140,8
03/2019 5,8 9,4 13,7 14,0 11,9 19,6 25,6 19,8 25 50 81 1.010 1.022 1.030 OSO 1,7 37,0 25,4
02/2019 2,9 7,0 11,7 11,6 9,9 17,4 24,3 21,4 26 53 74 996 1.024 1.033 OSO 1,7 49,9 1,2
01/2019 2,6 6,8 11,0 10,3 9,9 14,7 19,1 16,5 39 57 80 1.004 1.019 1.031 O 2,9 49,9 1,2
12/2018 5,8 8,8 14,3 12,8 12,9 17,6 23,4 17,6 39 61 84 1.008 1.025 1.031 O 1,4 45,1 23,6
11/2018 7,8 10,5 15,2 13,5 12,4 17,7 22,2 14,4 40 66 85 999 1.015 1.022 OSO 2,0 48,3 63,6
Tots els anys disponibles
2018 2,3 13,4 25,7 17,6 5,9 23,0 36,8 34,5 33 61 87 994 1.015 1.034 OSO 1,8 55,0 435,4
2017 -0,1 13,4 26,7 18,0 6,1 23,5 39,4 39,5 23 59 88 998 1.018 1.036 OSO 1,6 58,0 380,6
2016 2,0 13,4 24,6 18,2 10,4 23,1 39,3 37,3 22 61 91 995 1.017 1.037 O 0,1 53,0 353,6
Temperatura (°C)
Humitat relativa (%)
Velocitat del vent i ràfega màxima (km/h)
Direcció del vent (°)
Pressió (hPa)
Precipitació (mm)
Nota sobre les dades: s'avisa a l'usuari de la provisionalitat i no oficialitat d'aquestes dades
Logo AVAMET blanc
Web allotjada a Sollutia
Llicència de Creative CommonsLa web d'AVAMET i els seus continguts estan subjectes a una llicència de
Reconeixement - No Comercial - Compartir igual
Últimes estacions: Aielo de Malferit - Centre (Soci), Faura (Inforatge), Benifairó de les Valls (Inforatge), Xàbia - Les Valls (Soci), Xàbia - Alt de la Granadella (Soci), Villena - Sierra de Salinas (Soci), Sueca - Centre (Inforatge) - - -